createdAt,value
2017-11-10T00:02:11.792Z,96.50
2017-11-10T00:04:44.109Z,100.13
2017-11-10T00:07:17.352Z,88.80
2017-11-10T00:09:49.861Z,99.17
2017-11-10T00:12:22.407Z,92.00
2017-11-10T00:14:55.688Z,90.13
2017-11-10T00:17:28.081Z,96.10
2017-11-10T00:20:01.210Z,99.00
2017-11-10T00:22:33.543Z,87.57
2017-11-10T00:25:06.039Z,96.33
2017-11-10T00:27:38.593Z,96.00
2017-11-10T00:30:11.057Z,84.60
2017-11-10T00:32:43.470Z,100.63
2017-11-10T00:35:15.819Z,95.27
2017-11-10T00:37:48.464Z,103.57
2017-11-10T00:40:20.917Z,105.00
2017-11-10T00:42:53.268Z,102.53
2017-11-10T00:45:25.604Z,104.77
2017-11-10T00:47:58.109Z,107.33
2017-11-10T00:50:30.646Z,120.93
2017-11-10T00:53:03.076Z,119.67
2017-11-10T00:55:36.120Z,125.33
2017-11-10T00:58:08.589Z,123.40
2017-11-10T01:00:41.695Z,123.23
2017-11-10T01:03:13.975Z,144.20
2017-11-10T01:05:46.356Z,138.53
2017-11-10T01:08:18.832Z,132.90
2017-11-10T01:10:51.329Z,141.30
2017-11-10T01:13:24.421Z,144.43
2017-11-10T01:15:57.189Z,152.60
2017-11-10T01:18:29.686Z,148.00
2017-11-10T01:21:02.263Z,159.47
2017-11-10T01:23:34.633Z,152.10
2017-11-10T01:26:07.846Z,153.43
2017-11-10T01:28:40.196Z,154.20
2017-11-10T01:31:12.475Z,164.30
2017-11-10T01:33:45.594Z,158.13
2017-11-10T01:36:18.002Z,152.37
2017-11-10T01:38:50.513Z,152.37
2017-11-10T01:41:23.104Z,169.03
2017-11-10T01:43:56.184Z,157.17
2017-11-10T01:46:29.324Z,146.90
2017-11-10T01:49:01.781Z,155.93
2017-11-10T01:51:35.084Z,151.57
2017-11-10T01:54:07.506Z,128.43
2017-11-10T01:56:41.404Z,133.73
2017-11-10T01:59:13.927Z,143.83
2017-11-10T02:01:46.524Z,132.77
2017-11-10T02:04:18.888Z,128.33
2017-11-10T02:06:51.394Z,121.27
2017-11-10T02:09:24.494Z,117.03
2017-11-10T02:11:57.608Z,108.07
2017-11-10T02:14:30.055Z,127.63
2017-11-10T02:17:02.400Z,116.57
2017-11-10T02:19:34.764Z,118.30
2017-11-10T02:22:07.068Z,114.07
2017-11-10T02:24:39.440Z,121.80
2017-11-10T02:27:11.934Z,112.93
2017-11-10T02:29:44.512Z,123.13
2017-11-10T02:32:17.134Z,115.13
2017-11-10T02:34:50.704Z,120.73
2017-11-10T02:37:23.111Z,119.60
2017-11-10T02:39:55.494Z,133.07
2017-11-10T02:42:27.976Z,117.47
2017-11-10T02:45:01.086Z,119.77
2017-11-10T02:47:34.322Z,112.20
2017-11-10T02:50:06.874Z,101.43
2017-11-10T02:52:40.088Z,97.30
2017-11-10T02:55:12.484Z,108.27
2017-11-10T02:57:45.745Z,122.83
2017-11-10T03:00:18.204Z,115.53
2017-11-10T03:02:50.607Z,110.13
2017-11-10T03:05:23.112Z,127.70
2017-11-10T03:07:55.543Z,120.53
2017-11-10T03:10:27.887Z,104.80
2017-11-10T03:13:00.328Z,111.00
2017-11-10T03:15:32.704Z,113.77
2017-11-10T03:18:05.132Z,103.07
2017-11-10T03:20:37.524Z,92.67
2017-11-10T03:23:10.724Z,86.50
2017-11-10T03:25:43.857Z,89.13
2017-11-10T03:28:16.404Z,85.20
2017-11-10T03:30:49.450Z,82.03
2017-11-10T03:33:22.700Z,79.80
2017-11-10T03:35:55.328Z,84.20
2017-11-10T03:38:28.744Z,87.07
2017-11-10T03:41:01.284Z,76.93
2017-11-10T03:43:33.695Z,81.17
2017-11-10T03:46:06.099Z,81.43
2017-11-10T03:48:38.562Z,94.20
2017-11-10T03:51:10.984Z,100.30
2017-11-10T03:53:43.394Z,99.43
2017-11-10T04:05:07.527Z,110.10
2017-11-10T04:07:40.161Z,108.23
2017-11-10T04:10:12.439Z,106.60
2017-11-10T04:12:44.772Z,102.83
2017-11-10T04:15:17.177Z,93.07
2017-11-10T04:17:50.569Z,96.43
2017-11-10T04:20:23.202Z,99.07
2017-11-10T04:22:55.722Z,111.90
2017-11-10T04:25:28.991Z,120.73
2017-11-10T04:28:03.147Z,113.17
2017-11-10T04:30:35.681Z,118.67
2017-11-10T04:33:08.016Z,104.77
2017-11-10T04:35:40.293Z,101.60
2017-11-10T04:38:12.835Z,94.43
2017-11-10T04:40:45.401Z,103.43
2017-11-10T04:43:17.845Z,110.10
2017-11-10T04:45:50.324Z,111.77
2017-11-10T04:48:22.800Z,116.10
2017-11-10T04:50:55.231Z,107.13
2017-11-10T04:53:27.713Z,110.80
2017-11-10T04:56:04.450Z,121.73
2017-11-10T04:58:37.727Z,119.40
2017-11-10T05:01:10.892Z,117.20
2017-11-10T05:03:43.270Z,128.27
2017-11-10T05:06:15.730Z,125.50
2017-11-10T05:08:48.093Z,109.60
2017-11-10T05:11:20.483Z,143.17
2017-11-10T05:13:52.963Z,127.97
2017-11-10T05:16:26.144Z,120.43
2017-11-10T05:18:59.184Z,123.23
2017-11-10T05:21:31.665Z,122.10
2017-11-10T05:24:04.264Z,129.27
2017-11-10T05:26:36.592Z,115.37
2017-11-10T05:29:09.067Z,114.13
2017-11-10T05:31:41.474Z,117.27
2017-11-10T05:34:13.939Z,118.67
2017-11-10T05:36:46.369Z,126.50
2017-11-10T05:39:19.498Z,130.23
2017-11-10T05:41:51.887Z,128.67
2017-11-10T05:44:24.206Z,114.60
2017-11-10T05:46:56.741Z,117.20
2017-11-10T05:49:29.124Z,111.83
2017-11-10T05:52:01.565Z,117.93
2017-11-10T05:54:34.773Z,124.17
2017-11-10T05:57:07.158Z,120.00
2017-11-10T05:59:39.638Z,117.40
2017-11-10T06:02:12.163Z,113.07
2017-11-10T06:04:44.567Z,105.90
2017-11-10T06:07:16.884Z,115.90
2017-11-10T06:09:50.078Z,120.27
2017-11-10T06:12:22.506Z,120.87
2017-11-10T06:14:55.714Z,105.37
2017-11-10T06:17:28.130Z,108.67
2017-11-10T06:20:01.475Z,118.80
2017-11-10T06:22:34.088Z,106.20
2017-11-10T06:25:06.584Z,106.67
2017-11-10T06:27:38.899Z,102.77
2017-11-10T06:30:12.149Z,104.63
2017-11-10T06:32:44.585Z,106.07
2017-11-10T06:35:17.030Z,106.00
2017-11-10T06:37:49.392Z,104.93
2017-11-10T06:40:21.861Z,101.80
2017-11-10T06:42:54.263Z,98.80
2017-11-10T06:45:26.761Z,112.30
2017-11-10T06:47:59.158Z,105.93
2017-11-10T06:50:31.696Z,108.03
2017-11-10T06:53:04.087Z,97.53
2017-11-10T06:55:36.616Z,94.73
2017-11-10T06:58:09.149Z,101.23
2017-11-10T07:00:41.542Z,98.00
2017-11-10T07:03:13.990Z,96.30
2017-11-10T07:05:46.361Z,83.73
2017-11-10T07:08:18.830Z,87.30
2017-11-10T07:10:51.454Z,95.00
2017-11-10T07:13:23.866Z,78.93
2017-11-10T07:15:56.323Z,88.70
2017-11-10T07:18:28.745Z,84.73
2017-11-10T07:21:01.158Z,87.53
2017-11-10T07:23:33.624Z,76.63
2017-11-10T07:26:06.097Z,75.53
2017-11-10T07:28:39.284Z,84.00
2017-11-10T07:31:11.807Z,84.83
2017-11-10T07:33:44.364Z,80.03
2017-11-10T07:36:17.554Z,76.63
2017-11-10T07:38:49.958Z,79.83
2017-11-10T07:44:02.252Z,70.97
2017-11-10T07:46:34.671Z,78.80
2017-11-10T07:49:07.837Z,70.80
2017-11-10T07:51:40.379Z,66.50
2017-11-10T07:54:12.776Z,67.63
2017-11-10T07:56:45.289Z,71.17
2017-11-10T07:59:18.108Z,66.87
2017-11-10T08:01:50.588Z,72.20
2017-11-10T08:04:23.042Z,71.10
2017-11-10T08:06:55.509Z,71.40
2017-11-10T08:09:27.864Z,77.83
2017-11-10T08:12:01.130Z,68.20
2017-11-10T08:14:33.647Z,72.33
2017-11-10T08:17:06.778Z,67.13
2017-11-10T08:19:39.926Z,63.20
2017-11-10T08:22:12.456Z,63.33
2017-11-10T08:24:44.733Z,62.63
2017-11-10T08:27:17.348Z,62.30
2017-11-10T08:29:49.730Z,55.77
2017-11-10T08:32:22.168Z,61.17
2017-11-10T08:34:54.460Z,60.00
2017-11-10T08:37:26.870Z,56.27
2017-11-10T08:39:59.250Z,59.57
2017-11-10T08:42:31.695Z,56.47
2017-11-10T08:45:04.810Z,54.00
2017-11-10T08:47:45.144Z,55.53
2017-11-10T08:50:17.540Z,49.43
2017-11-10T08:52:50.087Z,47.23
2017-11-10T08:55:22.454Z,55.63
2017-11-10T08:57:54.919Z,48.20
2017-11-10T09:00:27.259Z,47.60
2017-11-10T09:03:00.416Z,55.57
2017-11-10T09:05:33.060Z,48.50
2017-11-10T09:08:05.390Z,50.23
2017-11-10T09:10:37.813Z,45.83
2017-11-10T09:13:10.916Z,48.60
2017-11-10T09:15:43.205Z,47.00
2017-11-10T09:18:16.352Z,45.30
2017-11-10T09:20:48.712Z,46.17
2017-11-10T09:23:21.240Z,49.87
2017-11-10T09:25:53.818Z,43.43
2017-11-10T09:31:56.607Z,50.80
2017-11-10T09:37:31.715Z,57.87
2017-11-10T09:40:10.941Z,60.10
2017-11-10T09:42:48.094Z,51.47
2017-11-10T09:48:32.653Z,54.63
2017-11-10T09:51:11.332Z,52.80
2017-11-10T09:56:49.483Z,56.13
2017-11-10T09:59:24.439Z,50.30
2017-11-10T10:02:03.025Z,53.80
2017-11-10T10:07:52.103Z,54.53
2017-11-10T10:10:30.619Z,45.13
2017-11-10T10:13:06.111Z,47.93
2017-11-10T10:18:58.833Z,47.20
2017-11-10T10:21:46.142Z,38.13
2017-11-10T10:24:18.541Z,43.00
2017-11-10T10:26:50.971Z,42.00
2017-11-10T10:29:23.387Z,42.13
2017-11-10T10:31:55.767Z,41.83
2017-11-10T10:34:29.127Z,52.50
2017-11-10T10:37:01.637Z,44.13
2017-11-10T10:39:34.648Z,39.00
2017-11-10T10:42:07.067Z,37.37
2017-11-10T10:44:39.656Z,35.43
2017-11-10T10:47:12.072Z,33.23
2017-11-10T10:49:44.532Z,32.77
2017-11-10T10:52:16.949Z,36.87
2017-11-10T10:54:50.160Z,35.37
2017-11-10T10:57:23.408Z,38.23
2017-11-10T10:59:55.863Z,40.57
2017-11-10T11:02:28.949Z,37.93
2017-11-10T11:05:01.401Z,34.40
2017-11-10T11:07:33.902Z,35.03
2017-11-10T11:10:06.252Z,37.67
2017-11-10T11:12:38.614Z,31.57
2017-11-10T11:15:11.275Z,33.93
2017-11-10T11:17:43.817Z,30.90
2017-11-10T11:20:16.414Z,30.17
2017-11-10T11:22:48.887Z,33.13
2017-11-10T11:25:22.171Z,30.77
2017-11-10T11:27:55.200Z,35.87
2017-11-10T11:30:27.578Z,34.00
2017-11-10T11:33:01.371Z,33.33
2017-11-10T11:35:33.705Z,39.40
2017-11-10T11:38:06.272Z,33.93
2017-11-10T11:40:38.594Z,33.00
2017-11-10T11:43:10.997Z,30.13
2017-11-10T11:45:43.730Z,28.30
2017-11-10T11:48:16.476Z,27.40
2017-11-10T11:50:48.822Z,28.90
2017-11-10T11:53:21.891Z,32.93
2017-11-10T11:55:54.808Z,29.80
2017-11-10T11:58:27.305Z,32.20
2017-11-10T12:01:00.421Z,29.30
2017-11-10T12:03:32.943Z,27.73
2017-11-10T12:06:06.253Z,30.67
2017-11-10T12:08:39.765Z,28.00
2017-11-10T12:11:13.061Z,27.93
2017-11-10T12:13:45.607Z,29.10
2017-11-10T12:16:18.212Z,29.27
2017-11-10T12:18:51.682Z,26.80
2017-11-10T12:21:24.153Z,27.13
2017-11-10T12:23:56.597Z,34.67
2017-11-10T12:26:28.957Z,28.90
2017-11-10T12:29:02.084Z,27.50
2017-11-10T12:31:35.356Z,37.47
2017-11-10T12:34:07.855Z,35.53
2017-11-10T12:36:40.372Z,33.07
2017-11-10T12:39:12.765Z,33.03
2017-11-10T12:41:45.011Z,29.77
2017-11-10T12:44:18.074Z,32.83
2017-11-10T12:46:51.581Z,33.00
2017-11-10T12:49:24.157Z,31.30
2017-11-10T12:51:56.871Z,29.43
2017-11-10T12:54:29.246Z,27.97
2017-11-10T12:57:01.703Z,32.83
2017-11-10T12:59:34.127Z,32.70
2017-11-10T13:02:07.790Z,35.13
2017-11-10T13:04:40.475Z,31.53
2017-11-10T13:07:13.222Z,30.37
2017-11-10T13:09:45.868Z,32.77
2017-11-10T13:12:18.594Z,37.37
2017-11-10T13:14:51.139Z,34.97
2017-11-10T13:17:23.598Z,30.40
2017-11-10T13:19:56.460Z,31.50
2017-11-10T13:22:29.773Z,29.00
2017-11-10T13:25:03.010Z,33.23
2017-11-10T13:27:35.496Z,30.10
2017-11-10T13:30:13.683Z,30.40
2017-11-10T13:32:47.088Z,32.57
2017-11-10T13:35:19.631Z,31.23
2017-11-10T13:37:52.042Z,37.30
2017-11-10T13:40:24.395Z,31.27
2017-11-10T13:42:58.485Z,28.97
2017-11-10T13:45:31.755Z,24.13
2017-11-10T13:48:04.181Z,29.03
2017-11-10T13:50:36.951Z,28.77
2017-11-10T13:53:10.285Z,25.97
2017-11-10T13:55:43.607Z,27.13
2017-11-10T13:58:16.021Z,22.73
2017-11-10T14:00:48.434Z,22.27
2017-11-10T14:03:20.893Z,28.90
2017-11-10T14:05:53.310Z,23.73
2017-11-10T14:08:26.630Z,22.93
2017-11-10T14:10:59.336Z,21.40
2017-11-10T14:13:32.563Z,20.63
2017-11-10T14:16:06.005Z,20.50
2017-11-10T14:18:38.544Z,29.00
2017-11-10T14:21:11.048Z,22.83
2017-11-10T14:23:43.485Z,24.17
2017-11-10T14:26:15.892Z,19.43
2017-11-10T14:28:48.271Z,17.00
2017-11-10T14:31:20.668Z,16.40
2017-11-10T14:33:53.104Z,19.93
2017-11-10T14:36:25.506Z,22.20
2017-11-10T14:38:58.501Z,21.23
2017-11-10T14:41:31.221Z,14.50
2017-11-10T14:44:03.693Z,19.30
2017-11-10T14:46:36.178Z,20.20
2017-11-10T14:49:09.265Z,18.50
2017-11-10T14:51:41.738Z,21.57
2017-11-10T14:54:14.291Z,16.33
2017-11-10T14:56:47.154Z,18.83
2017-11-10T14:59:19.441Z,16.73
2017-11-10T15:01:51.964Z,16.33
2017-11-10T15:04:25.222Z,19.93
2017-11-10T15:06:58.335Z,15.23
2017-11-10T15:09:31.588Z,12.97
2017-11-10T15:12:04.223Z,15.87
2017-11-10T15:14:36.752Z,14.87
2017-11-10T15:17:09.870Z,13.77
2017-11-10T15:19:42.348Z,15.60
2017-11-10T15:22:14.890Z,14.87
2017-11-10T15:24:47.404Z,14.83
2017-11-10T15:27:19.944Z,13.20
2017-11-10T15:29:46.230Z,16.57
2017-11-10T15:32:13.405Z,14.27
2017-11-10T15:34:40.483Z,16.77
2017-11-10T15:37:06.900Z,18.17
2017-11-10T15:39:33.189Z,15.70
2017-11-10T15:42:00.443Z,16.83
2017-11-10T15:44:26.746Z,25.73
2017-11-10T15:46:53.004Z,23.77
2017-11-10T15:49:19.286Z,23.20
2017-11-10T15:51:45.647Z,19.03
2017-11-10T15:54:12.083Z,16.57
2017-11-10T15:56:38.364Z,20.77
2017-11-10T15:59:04.815Z,17.87
2017-11-10T16:01:31.072Z,16.87
2017-11-10T16:03:58.132Z,22.70
2017-11-10T16:06:24.448Z,18.83
2017-11-10T16:08:50.730Z,17.93
2017-11-10T16:11:17.028Z,19.10
2017-11-10T16:13:43.316Z,17.33
2017-11-10T16:16:09.572Z,16.87
2017-11-10T16:18:35.857Z,15.80
2017-11-10T16:21:02.156Z,17.47
2017-11-10T16:23:28.419Z,23.30
2017-11-10T16:25:54.676Z,17.43
2017-11-10T16:28:21.637Z,20.53
2017-11-10T16:30:47.873Z,18.80
2017-11-10T16:33:14.087Z,16.27
2017-11-10T16:35:41.076Z,14.97
2017-11-10T16:38:08.115Z,13.23
2017-11-10T16:40:34.423Z,14.60
2017-11-10T16:43:00.646Z,13.43
2017-11-10T16:45:27.634Z,12.33
2017-11-10T16:47:53.892Z,15.03
2017-11-10T16:50:20.151Z,11.93
2017-11-10T16:52:46.371Z,18.57
2017-11-10T16:55:12.588Z,17.13
2017-11-10T16:57:39.604Z,23.63
2017-11-10T17:00:05.863Z,19.93
2017-11-10T17:02:32.862Z,12.83
2017-11-10T17:04:59.544Z,14.00
2017-11-10T17:07:25.955Z,13.73
2017-11-10T17:09:52.172Z,16.77
2017-11-10T17:12:18.441Z,15.00
2017-11-10T17:14:45.709Z,17.53
2017-11-10T17:17:11.966Z,20.37
2017-11-10T17:19:39.357Z,16.03
2017-11-10T17:22:05.622Z,15.63
2017-11-10T17:24:31.966Z,17.67
2017-11-10T17:26:58.301Z,26.30
2017-11-10T17:29:31.844Z,16.53
2017-11-10T17:31:58.245Z,15.87
2017-11-10T17:34:24.653Z,13.20
2017-11-10T17:36:51.013Z,8.30
2017-11-10T17:39:18.940Z,5.10
2017-11-10T17:41:45.353Z,10.57
2017-11-10T17:44:12.509Z,9.63
2017-11-10T17:46:38.829Z,11.13
2017-11-10T17:49:05.829Z,10.23
2017-11-10T17:51:32.081Z,9.70
2017-11-10T17:53:58.424Z,9.90
2017-11-10T17:56:25.610Z,9.00
2017-11-10T17:58:53.008Z,7.37
2017-11-10T18:01:20.145Z,8.30
2017-11-10T18:03:46.608Z,8.40
2017-11-10T18:06:12.938Z,5.23
2017-11-10T18:08:40.808Z,8.10
2017-11-10T18:11:08.289Z,5.80
2017-11-10T18:13:34.689Z,5.60
2017-11-10T18:16:01.254Z,9.50
2017-11-10T18:18:27.564Z,4.03
2017-11-10T18:20:54.712Z,5.10
2017-11-10T18:23:21.705Z,15.53
2017-11-10T18:25:47.947Z,7.53
2017-11-10T18:28:14.161Z,20.00
2017-11-10T18:30:41.682Z,6.07
2017-11-10T18:33:08.718Z,7.80
2017-11-10T18:35:35.791Z,8.83
2017-11-10T18:38:05.124Z,11.00
2017-11-10T18:40:32.666Z,8.53
2017-11-10T18:42:59.845Z,10.70
2017-11-10T18:45:26.197Z,10.67
2017-11-10T18:47:53.273Z,11.13
2017-11-10T18:50:19.783Z,9.17
2017-11-10T18:52:46.182Z,10.60
2017-11-10T18:55:16.342Z,20.73
2017-11-10T18:57:42.663Z,10.87
2017-11-10T19:00:08.927Z,10.70
2017-11-10T19:02:35.193Z,20.40
2017-11-10T19:05:01.449Z,12.30
2017-11-10T19:07:27.739Z,11.67
2017-11-10T19:09:54.000Z,10.03
2017-11-10T19:12:20.302Z,9.10
2017-11-10T19:14:46.673Z,18.97
2017-11-10T19:17:13.703Z,14.33
2017-11-10T19:19:39.976Z,7.60
2017-11-10T19:22:06.317Z,23.47
2017-11-10T19:24:32.587Z,9.73
2017-11-10T19:26:58.869Z,11.53
2017-11-10T19:29:25.115Z,8.60
2017-11-10T19:31:51.411Z,25.80
2017-11-10T19:34:17.708Z,17.00
2017-11-10T19:36:43.992Z,10.10
2017-11-10T19:39:11.173Z,21.53
2017-11-10T19:41:37.485Z,12.27
2017-11-10T19:44:04.561Z,11.13
2017-11-10T19:46:30.834Z,10.40
2017-11-10T19:48:57.084Z,9.07
2017-11-10T19:51:23.353Z,9.13
2017-11-10T19:53:49.764Z,13.97
2017-11-10T19:56:16.095Z,18.07
2017-11-10T19:58:42.693Z,11.87
2017-11-10T20:01:08.967Z,11.63
2017-11-10T20:03:36.175Z,16.20
2017-11-10T20:06:02.494Z,16.57
2017-11-10T20:08:28.796Z,12.80
2017-11-10T20:10:55.904Z,9.80
2017-11-10T20:13:22.206Z,11.03
2017-11-10T20:15:48.485Z,11.87
2017-11-10T20:18:14.965Z,13.93
2017-11-10T20:20:41.221Z,8.30
2017-11-10T20:23:07.528Z,14.27
2017-11-10T20:25:33.954Z,11.73
2017-11-10T20:28:00.913Z,15.60
2017-11-10T20:30:27.321Z,8.23
2017-11-10T20:32:53.640Z,23.80
2017-11-10T20:35:19.939Z,15.23
2017-11-10T20:37:46.252Z,7.43
2017-11-10T20:40:13.259Z,6.00
2017-11-10T20:42:40.285Z,10.83
2017-11-10T20:45:06.570Z,14.20
2017-11-10T20:47:32.904Z,11.13
2017-11-10T20:49:59.981Z,11.57
2017-11-10T20:52:26.272Z,11.53
2017-11-10T20:54:52.544Z,16.50
2017-11-10T20:57:18.858Z,8.53
2017-11-10T20:59:45.358Z,9.83
2017-11-10T21:02:11.735Z,7.77
2017-11-10T21:04:38.989Z,21.27
2017-11-10T21:07:06.102Z,17.70
2017-11-10T21:09:32.360Z,10.60
2017-11-10T21:11:59.337Z,14.13
2017-11-10T21:14:26.332Z,12.00
2017-11-10T21:16:52.660Z,12.90
2017-11-10T21:19:19.063Z,12.07
2017-11-10T21:21:45.381Z,21.23
2017-11-10T21:24:12.580Z,13.70
2017-11-10T21:26:39.070Z,10.83
2017-11-10T21:29:05.458Z,10.23
2017-11-10T21:31:31.844Z,11.47
2017-11-10T21:33:58.138Z,10.50
2017-11-10T21:36:25.385Z,12.00
2017-11-10T21:38:51.854Z,12.83
2017-11-10T21:41:18.284Z,11.33
2017-11-10T21:43:45.411Z,9.70
2017-11-10T21:46:12.536Z,22.30
2017-11-10T21:48:39.063Z,6.07
2017-11-10T21:51:05.476Z,19.53
2017-11-10T21:53:32.001Z,16.23
2017-11-10T21:55:58.393Z,14.40
2017-11-10T21:58:24.935Z,9.90
2017-11-10T22:00:51.315Z,14.60
2017-11-10T22:03:17.636Z,18.20
2017-11-10T22:05:44.005Z,10.10
2017-11-10T22:08:11.199Z,9.93
2017-11-10T22:10:37.526Z,15.97
2017-11-10T22:13:03.903Z,12.20
2017-11-10T22:15:30.216Z,8.30
2017-11-10T22:17:56.492Z,6.07
2017-11-10T22:20:23.489Z,11.13
2017-11-10T22:22:49.898Z,16.33
2017-11-10T22:25:16.293Z,13.43
2017-11-10T22:27:43.468Z,11.90
2017-11-10T22:30:09.853Z,11.03
2017-11-10T22:32:36.892Z,11.90
2017-11-10T22:35:03.246Z,9.53
2017-11-10T22:37:29.611Z,10.80
2017-11-10T22:39:55.957Z,10.13
2017-11-10T22:42:22.390Z,10.43
2017-11-10T22:44:48.603Z,7.40
2017-11-10T22:47:14.973Z,12.97
2017-11-10T22:49:41.327Z,12.77
2017-11-10T22:52:07.708Z,6.40
2017-11-10T22:57:07.073Z,3.40
2017-11-10T22:59:33.580Z,5.93
2017-11-10T23:01:59.967Z,9.67
2017-11-10T23:04:26.447Z,13.03
2017-11-10T23:06:52.937Z,4.67
2017-11-10T23:09:19.390Z,5.37
2017-11-10T23:11:45.758Z,3.67
2017-11-10T23:14:12.610Z,9.80
2017-11-10T23:16:38.991Z,5.20
2017-11-10T23:19:05.260Z,9.37
2017-11-10T23:21:31.695Z,9.97
2017-11-10T23:23:58.082Z,7.37
2017-11-10T23:26:24.439Z,4.77
2017-11-10T23:28:50.834Z,15.90
2017-11-10T23:31:17.194Z,9.17
2017-11-10T23:33:43.613Z,5.27
2017-11-10T23:36:09.945Z,6.43
2017-11-10T23:38:36.188Z,7.90
2017-11-10T23:41:02.661Z,12.27
2017-11-10T23:43:29.773Z,5.50
2017-11-10T23:45:56.159Z,6.17
2017-11-10T23:48:22.574Z,7.57
2017-11-10T23:50:56.711Z,10.33
2017-11-10T23:53:23.838Z,13.10
2017-11-10T23:55:50.820Z,9.63
2017-11-10T23:58:17.140Z,10.73
